createdAt,value
2023-02-11T00:01:47.579Z,2.05
2023-02-11T00:04:14.256Z,1.90
2023-02-11T00:06:40.806Z,2.67
2023-02-11T00:09:07.611Z,2.15
2023-02-11T00:11:34.656Z,3.20
2023-02-11T00:14:04.692Z,1.95
2023-02-11T00:16:32.383Z,1.67
2023-02-11T00:19:00.503Z,2.45
2023-02-11T00:21:27.718Z,1.65
2023-02-11T00:23:57.118Z,1.73
2023-02-11T00:26:27.102Z,1.83
2023-02-11T00:28:54.158Z,1.70
2023-02-11T00:31:23.145Z,1.52
2023-02-11T00:33:50.163Z,1.85
2023-02-11T00:36:19.462Z,2.03
2023-02-11T00:38:46.816Z,1.70
2023-02-11T00:41:14.742Z,2.53
2023-02-11T00:43:41.724Z,2.00
2023-02-11T00:46:08.992Z,1.55
2023-02-11T00:48:36.037Z,1.77
2023-02-11T00:51:04.198Z,1.75
2023-02-11T00:53:31.588Z,2.08
2023-02-11T00:55:58.195Z,2.00
2023-02-11T00:58:24.801Z,1.75
2023-02-11T01:00:53.918Z,1.90
2023-02-11T01:03:23.143Z,1.65
2023-02-11T01:05:49.896Z,1.08
2023-02-11T01:08:16.839Z,2.25
2023-02-11T01:10:44.025Z,1.45
2023-02-11T01:13:10.912Z,1.67
2023-02-11T01:15:37.528Z,2.00
2023-02-11T01:18:06.030Z,1.77
2023-02-11T01:20:32.718Z,1.85
2023-02-11T01:22:59.225Z,2.13
2023-02-11T01:25:25.699Z,1.80
2023-02-11T01:27:52.301Z,1.92
2023-02-11T01:30:18.844Z,1.83
2023-02-11T01:32:45.325Z,1.88
2023-02-11T01:35:11.840Z,2.08
2023-02-11T01:37:38.397Z,2.30
2023-02-11T01:40:07.321Z,1.88
2023-02-11T01:42:33.907Z,2.78
2023-02-11T01:45:02.132Z,2.25
2023-02-11T01:47:28.596Z,2.95
2023-02-11T01:50:01.116Z,1.83
2023-02-11T01:52:41.047Z,2.40
2023-02-11T01:55:31.383Z,2.60
2023-02-11T01:58:02.470Z,2.03
2023-02-11T02:00:37.920Z,2.47
2023-02-11T02:03:13.075Z,2.30
2023-02-11T02:06:01.315Z,2.50
2023-02-11T02:08:52.505Z,2.50
2023-02-11T02:11:19.205Z,2.65
2023-02-11T02:13:46.001Z,2.92
2023-02-11T02:16:16.088Z,2.43
2023-02-11T02:18:45.646Z,2.70
2023-02-11T02:21:12.051Z,2.67
2023-02-11T02:24:00.358Z,2.65
2023-02-11T02:27:04.024Z,2.58
2023-02-11T02:29:58.344Z,2.03
2023-02-11T02:32:24.710Z,2.33
2023-02-11T02:35:07.170Z,1.98
2023-02-11T02:38:07.011Z,2.53
2023-02-11T02:40:41.087Z,2.22
2023-02-11T02:43:10.526Z,2.67
2023-02-11T02:45:37.241Z,3.50
2023-02-11T02:48:04.009Z,2.47
2023-02-11T02:50:34.264Z,2.45
2023-02-11T02:53:09.943Z,2.28
2023-02-11T02:56:01.433Z,2.03
2023-02-11T02:58:37.120Z,2.70
2023-02-11T03:01:17.930Z,2.50
2023-02-11T03:04:04.054Z,2.30
2023-02-11T03:06:53.850Z,2.45
2023-02-11T03:09:32.532Z,3.27
2023-02-11T03:12:02.161Z,2.17
2023-02-11T03:14:30.623Z,2.45
2023-02-11T03:16:59.511Z,3.00
2023-02-11T03:19:34.341Z,3.50
2023-02-11T03:22:05.255Z,2.37
2023-02-11T03:24:36.273Z,2.13
2023-02-11T03:27:27.866Z,2.65
2023-02-11T03:30:22.345Z,3.42
2023-02-11T03:32:57.182Z,2.63
2023-02-11T03:35:32.595Z,3.07
2023-02-11T03:38:12.466Z,2.85
2023-02-11T03:40:41.236Z,3.15
2023-02-11T03:43:17.794Z,3.88
2023-02-11T03:45:47.506Z,3.10
2023-02-11T03:48:22.495Z,4.73
2023-02-11T03:50:51.259Z,3.42
2023-02-11T03:53:20.438Z,3.40
2023-02-11T03:55:48.584Z,3.40
2023-02-11T03:58:15.389Z,3.83
2023-02-11T04:00:43.465Z,3.70
2023-02-11T04:03:10.910Z,4.03
2023-02-11T04:05:38.497Z,4.07
2023-02-11T04:08:05.335Z,4.35
2023-02-11T04:10:31.925Z,4.68
2023-02-11T04:12:58.766Z,4.83
2023-02-11T04:15:25.839Z,4.25
2023-02-11T04:17:52.428Z,3.97
2023-02-11T04:20:19.078Z,4.47
2023-02-11T04:22:45.640Z,4.80
2023-02-11T04:25:12.526Z,4.50
2023-02-11T04:27:39.045Z,4.38
2023-02-11T04:30:06.672Z,4.78
2023-02-11T04:32:33.174Z,4.95
2023-02-11T04:34:59.650Z,4.20
2023-02-11T04:37:26.125Z,4.63
2023-02-11T04:39:52.590Z,4.72
2023-02-11T04:42:19.128Z,6.20
2023-02-11T04:44:45.781Z,4.97
2023-02-11T04:47:32.296Z,5.22
2023-02-11T04:49:58.858Z,5.67
2023-02-11T04:52:25.498Z,5.53
2023-02-11T04:54:51.992Z,6.10
2023-02-11T04:57:18.470Z,6.30
2023-02-11T04:59:45.225Z,5.57
2023-02-11T05:02:11.731Z,5.90
2023-02-11T05:04:38.354Z,6.38
2023-02-11T05:07:04.859Z,6.50
2023-02-11T05:09:31.410Z,6.18
2023-02-11T05:11:57.951Z,6.82
2023-02-11T05:14:24.486Z,6.57
2023-02-11T05:16:51.141Z,7.63
2023-02-11T05:19:17.759Z,8.18
2023-02-11T05:22:00.207Z,7.18
2023-02-11T05:24:28.611Z,6.95
2023-02-11T05:26:55.106Z,6.90
2023-02-11T05:29:22.030Z,7.05
2023-02-11T05:31:48.839Z,6.75
2023-02-11T05:34:15.351Z,6.68
2023-02-11T05:36:41.885Z,7.47
2023-02-11T05:39:08.414Z,6.87
2023-02-11T05:41:35.010Z,7.18
2023-02-11T05:44:01.596Z,7.93
2023-02-11T05:46:28.275Z,6.82
2023-02-11T05:48:56.579Z,7.45
2023-02-11T05:51:25.384Z,7.60
2023-02-11T05:53:53.266Z,7.50
2023-02-11T05:56:20.009Z,7.43
2023-02-11T05:58:46.730Z,6.65
2023-02-11T06:01:13.304Z,7.97
2023-02-11T06:03:39.827Z,7.20
2023-02-11T06:06:10.747Z,7.53
2023-02-11T06:08:39.274Z,8.52
2023-02-11T06:11:05.991Z,8.07
2023-02-11T06:13:32.497Z,7.80
2023-02-11T06:16:00.615Z,8.07
2023-02-11T06:18:27.345Z,7.97
2023-02-11T06:20:54.112Z,8.48
2023-02-11T06:23:20.993Z,8.10
2023-02-11T06:25:47.921Z,9.30
2023-02-11T06:28:14.605Z,8.57
2023-02-11T06:30:41.252Z,8.60
2023-02-11T06:33:07.782Z,8.35
2023-02-11T06:35:35.424Z,9.05
2023-02-11T06:38:02.146Z,8.25
2023-02-11T06:40:28.871Z,8.10
2023-02-11T06:42:55.408Z,8.50
2023-02-11T06:45:21.962Z,8.38
2023-02-11T06:47:52.789Z,8.70
2023-02-11T06:50:19.489Z,8.13
2023-02-11T06:52:46.277Z,7.70
2023-02-11T06:55:13.093Z,8.43
2023-02-11T06:57:39.680Z,8.15
2023-02-11T07:00:06.910Z,9.10
2023-02-11T07:02:35.736Z,8.68
2023-02-11T07:05:02.530Z,7.90
2023-02-11T07:07:29.143Z,8.70
2023-02-11T07:09:55.706Z,8.68
2023-02-11T07:12:22.272Z,8.77
2023-02-11T07:14:48.770Z,9.52
2023-02-11T07:17:15.854Z,8.97
2023-02-11T07:19:42.465Z,8.35
2023-02-11T07:22:08.894Z,8.80
2023-02-11T07:24:35.500Z,9.95
2023-02-11T07:27:02.032Z,8.95
2023-02-11T07:29:28.458Z,8.80
2023-02-11T07:31:54.998Z,8.85
2023-02-11T07:34:21.512Z,9.25
2023-02-11T07:36:49.128Z,9.55
2023-02-11T07:39:15.813Z,9.70
2023-02-11T07:41:42.993Z,9.67
2023-02-11T07:44:10.592Z,9.85
2023-02-11T07:46:37.151Z,9.43
2023-02-11T07:49:06.119Z,10.43
2023-02-11T07:51:32.680Z,9.82
2023-02-11T07:54:00.181Z,9.37
2023-02-11T07:56:28.212Z,9.15
2023-02-11T07:58:56.782Z,9.98
2023-02-11T08:01:27.543Z,9.98
2023-02-11T08:03:56.084Z,9.52
2023-02-11T08:06:25.468Z,8.97
2023-02-11T08:08:52.514Z,10.05
2023-02-11T08:11:24.603Z,10.27
2023-02-11T08:13:52.352Z,9.63
2023-02-11T08:16:30.432Z,9.70
2023-02-11T08:19:00.959Z,9.63
2023-02-11T08:21:28.126Z,9.80
2023-02-11T08:23:55.231Z,9.77
2023-02-11T08:26:24.721Z,10.50
2023-02-11T08:28:53.247Z,9.90
2023-02-11T08:31:23.789Z,9.93
2023-02-11T08:33:50.622Z,10.80
2023-02-11T08:36:20.529Z,10.85
2023-02-11T08:38:47.876Z,10.82
2023-02-11T08:41:15.818Z,10.57
2023-02-11T08:43:44.252Z,9.80
2023-02-11T08:46:17.563Z,10.65
2023-02-11T08:48:45.257Z,10.00
2023-02-11T08:51:18.677Z,11.00
2023-02-11T08:53:46.495Z,11.15
2023-02-11T08:56:14.116Z,10.40
2023-02-11T08:58:41.675Z,10.35
2023-02-11T09:01:23.725Z,10.25
2023-02-11T09:03:50.613Z,10.23
2023-02-11T09:06:18.732Z,10.75
2023-02-11T09:08:49.577Z,9.73
2023-02-11T09:11:18.041Z,9.45
2023-02-11T09:13:47.098Z,10.13
2023-02-11T09:16:22.852Z,9.88
2023-02-11T09:18:50.395Z,10.18
2023-02-11T09:21:17.830Z,10.40
2023-02-11T09:23:47.488Z,9.20
2023-02-11T09:26:20.338Z,9.60
2023-02-11T09:28:47.465Z,10.00
2023-02-11T09:31:17.512Z,9.63
2023-02-11T09:33:48.974Z,8.90
2023-02-11T09:36:30.730Z,9.48
2023-02-11T09:39:02.227Z,9.93
2023-02-11T09:41:50.060Z,9.40
2023-02-11T09:44:21.385Z,8.30
2023-02-11T09:46:55.644Z,8.93
2023-02-11T09:49:31.610Z,9.00
2023-02-11T09:52:05.122Z,8.93
2023-02-11T09:54:42.055Z,8.35
2023-02-11T09:57:22.947Z,8.90
2023-02-11T09:59:56.567Z,8.63
2023-02-11T10:02:42.033Z,8.45
2023-02-11T10:05:33.340Z,8.30
2023-02-11T10:08:19.189Z,8.80
2023-02-11T10:11:02.797Z,7.30
2023-02-11T10:14:01.865Z,8.10
2023-02-11T10:16:57.732Z,8.75
2023-02-11T10:19:52.245Z,7.45
2023-02-11T10:22:31.488Z,7.35
2023-02-11T10:25:00.430Z,8.07
2023-02-11T10:27:32.015Z,8.53
2023-02-11T10:30:20.830Z,7.55
2023-02-11T10:33:02.508Z,7.40
2023-02-11T10:35:29.072Z,7.20
2023-02-11T10:37:56.258Z,7.28
2023-02-11T10:40:25.863Z,6.77
2023-02-11T10:42:55.997Z,6.80
2023-02-11T10:45:32.528Z,6.85
2023-02-11T10:48:00.628Z,6.70
2023-02-11T10:50:29.821Z,6.88
2023-02-11T10:53:20.674Z,7.03
2023-02-11T10:55:54.258Z,6.50
2023-02-11T10:58:29.485Z,6.50
2023-02-11T11:00:58.353Z,6.13
2023-02-11T11:03:27.403Z,5.95
2023-02-11T11:06:06.927Z,6.67
2023-02-11T11:08:46.658Z,6.07
2023-02-11T11:11:16.107Z,7.15
2023-02-11T11:13:54.061Z,6.65
2023-02-11T11:16:51.892Z,6.10
2023-02-11T11:19:24.278Z,6.40
2023-02-11T11:21:53.187Z,6.22
2023-02-11T11:24:33.588Z,6.47
2023-02-11T11:27:02.929Z,5.95
2023-02-11T11:29:51.908Z,6.35
2023-02-11T11:32:28.531Z,5.63
2023-02-11T11:34:59.890Z,5.63
2023-02-11T11:37:30.562Z,6.07
2023-02-11T11:40:01.113Z,5.78
2023-02-11T11:42:29.113Z,6.03
2023-02-11T11:45:01.580Z,5.57
2023-02-11T11:47:55.013Z,5.78
2023-02-11T11:50:44.903Z,5.38
2023-02-11T11:53:20.954Z,5.55
2023-02-11T11:55:58.596Z,5.25
2023-02-11T11:58:29.204Z,5.23
2023-02-11T12:01:09.188Z,5.40
2023-02-11T12:03:49.711Z,5.20
2023-02-11T12:06:28.172Z,5.20
2023-02-11T12:09:22.498Z,4.72
2023-02-11T12:12:17.132Z,5.10
2023-02-11T12:15:04.865Z,4.70
2023-02-11T12:18:09.446Z,5.10
2023-02-11T12:20:43.525Z,4.07
2023-02-11T12:23:51.510Z,5.13
2023-02-11T12:26:22.193Z,3.57
2023-02-11T12:29:07.382Z,3.78
2023-02-11T12:32:13.631Z,4.22
2023-02-11T12:35:05.101Z,3.65
2023-02-11T12:37:52.986Z,3.40
2023-02-11T12:40:31.570Z,3.53
2023-02-11T12:43:16.088Z,3.53
2023-02-11T12:46:03.977Z,3.42
2023-02-11T12:48:55.416Z,3.35
2023-02-11T12:51:34.242Z,3.50
2023-02-11T12:54:19.473Z,3.47
2023-02-11T12:57:17.090Z,3.22
2023-02-11T13:00:07.837Z,3.17
2023-02-11T13:03:03.747Z,3.15
2023-02-11T13:05:46.766Z,3.90
2023-02-11T13:08:23.438Z,3.47
2023-02-11T13:11:01.432Z,3.30
2023-02-11T13:13:39.128Z,3.70
2023-02-11T13:16:13.445Z,4.18
2023-02-11T13:18:50.679Z,3.50
2023-02-11T13:21:38.835Z,3.20
2023-02-11T13:24:26.538Z,3.50
2023-02-11T13:27:08.165Z,3.00
2023-02-11T13:30:04.414Z,3.67
2023-02-11T13:32:56.061Z,3.33
2023-02-11T13:35:37.722Z,3.43
2023-02-11T13:38:17.343Z,3.00
2023-02-11T13:40:44.631Z,3.35
2023-02-11T13:43:23.755Z,3.03
2023-02-11T13:45:52.375Z,3.08
2023-02-11T13:48:25.462Z,3.50
2023-02-11T13:50:55.967Z,3.53
2023-02-11T13:53:23.757Z,3.85
2023-02-11T13:55:53.196Z,3.75
2023-02-11T13:58:28.907Z,3.90
2023-02-11T14:00:55.874Z,3.37
2023-02-11T14:03:48.140Z,3.40
2023-02-11T14:06:36.762Z,3.58
2023-02-11T14:09:09.423Z,3.30
2023-02-11T14:11:55.463Z,3.83
2023-02-11T14:14:25.145Z,2.90
2023-02-11T14:17:07.211Z,3.17
2023-02-11T14:19:41.348Z,3.30
2023-02-11T14:22:26.051Z,3.53
2023-02-11T14:24:58.826Z,3.30
2023-02-11T14:27:47.348Z,3.20
2023-02-11T14:30:23.685Z,3.40
2023-02-11T14:33:11.459Z,3.53
2023-02-11T14:35:52.388Z,3.92
2023-02-11T14:38:37.880Z,3.78
2023-02-11T14:41:07.532Z,3.53
2023-02-11T14:43:48.000Z,3.53
2023-02-11T14:46:19.890Z,3.35
2023-02-11T14:48:50.408Z,3.28
2023-02-11T14:51:25.820Z,3.40
2023-02-11T14:53:57.883Z,3.10
2023-02-11T14:56:31.406Z,3.90
2023-02-11T14:58:58.634Z,3.30
2023-02-11T15:01:35.952Z,3.67
2023-02-11T15:04:05.322Z,3.05
2023-02-11T15:06:47.383Z,3.60
2023-02-11T15:09:18.572Z,2.85
2023-02-11T15:11:49.723Z,3.72
2023-02-11T15:14:24.147Z,3.35
2023-02-11T15:16:53.567Z,3.42
2023-02-11T15:19:33.063Z,3.43
2023-02-11T15:22:02.376Z,3.95
2023-02-11T15:24:35.393Z,3.28
2023-02-11T15:27:14.572Z,3.10
2023-02-11T15:29:49.146Z,3.47
2023-02-11T15:32:18.299Z,3.43
2023-02-11T15:34:46.463Z,3.28
2023-02-11T15:37:26.714Z,3.17
2023-02-11T15:39:54.680Z,3.42
2023-02-11T15:42:29.198Z,3.35
2023-02-11T15:45:35.316Z,3.23
2023-02-11T15:48:13.680Z,2.92
2023-02-11T15:50:42.358Z,3.25
2023-02-11T15:53:30.177Z,3.45
2023-02-11T15:56:37.707Z,3.97
2023-02-11T15:59:20.549Z,3.43
2023-02-11T16:01:48.638Z,3.47
2023-02-11T16:04:21.746Z,3.28
2023-02-11T16:06:49.431Z,3.40
2023-02-11T16:09:15.807Z,3.22
2023-02-11T16:11:48.210Z,3.50
2023-02-11T16:14:24.072Z,3.55
2023-02-11T16:16:54.911Z,3.67
2023-02-11T16:19:25.602Z,4.63
2023-02-11T16:21:54.522Z,4.88
2023-02-11T16:24:28.139Z,4.30
2023-02-11T16:27:00.806Z,3.97
2023-02-11T16:29:30.305Z,3.75
2023-02-11T16:32:16.568Z,3.50
2023-02-11T16:34:43.685Z,3.70
2023-02-11T16:37:10.405Z,3.37
2023-02-11T16:39:37.339Z,3.47
2023-02-11T16:42:07.122Z,5.13
2023-02-11T16:44:35.195Z,3.60
2023-02-11T16:47:03.415Z,4.18
2023-02-11T16:49:33.840Z,3.43
2023-02-11T16:52:05.542Z,3.00
2023-02-11T16:54:32.984Z,3.30
2023-02-11T16:56:59.678Z,3.20
2023-02-11T16:59:26.347Z,3.38
2023-02-11T17:01:54.810Z,3.70
2023-02-11T17:04:29.920Z,3.70
2023-02-11T17:06:58.511Z,3.67
2023-02-11T17:09:30.321Z,3.47
2023-02-11T17:11:57.526Z,4.05
2023-02-11T17:14:24.076Z,3.43
2023-02-11T17:16:50.683Z,3.42
2023-02-11T17:19:21.859Z,4.15
2023-02-11T17:21:51.893Z,4.22
2023-02-11T17:24:19.478Z,5.45
2023-02-11T17:26:46.962Z,4.90
2023-02-11T17:29:16.462Z,4.15
2023-02-11T17:31:43.366Z,3.60
2023-02-11T17:34:10.527Z,3.53
2023-02-11T17:36:37.096Z,3.95
2023-02-11T17:39:07.046Z,4.07
2023-02-11T17:41:37.483Z,3.80
2023-02-11T17:44:04.860Z,3.92
2023-02-11T17:46:32.241Z,4.15
2023-02-11T17:48:59.859Z,4.00
2023-02-11T17:51:26.450Z,5.40
2023-02-11T17:53:53.985Z,4.65
2023-02-11T17:56:21.312Z,4.60
2023-02-11T17:58:47.834Z,3.88
2023-02-11T18:01:16.382Z,4.47
2023-02-11T18:03:42.962Z,5.67
2023-02-11T18:06:09.436Z,6.90
2023-02-11T18:08:36.224Z,5.80
2023-02-11T18:11:03.457Z,5.60
2023-02-11T18:13:30.511Z,6.60
2023-02-11T18:16:03.466Z,5.30
2023-02-11T18:18:30.302Z,4.53
2023-02-11T18:20:58.765Z,4.50
2023-02-11T18:23:25.904Z,4.75
2023-02-11T18:25:52.975Z,4.68
2023-02-11T18:28:19.928Z,4.80
2023-02-11T18:30:46.540Z,5.05
2023-02-11T18:33:14.382Z,4.82
2023-02-11T18:35:42.177Z,4.55
2023-02-11T18:38:09.496Z,4.60
2023-02-11T18:40:39.845Z,4.93
2023-02-11T18:43:06.774Z,4.85
2023-02-11T18:45:33.611Z,4.88
2023-02-11T18:48:05.319Z,4.57
2023-02-11T18:50:31.898Z,5.18
2023-02-11T18:52:58.398Z,4.30
2023-02-11T18:55:26.025Z,5.53
2023-02-11T18:57:53.157Z,5.35
2023-02-11T19:00:21.145Z,4.78
2023-02-11T19:02:47.705Z,4.97
2023-02-11T19:05:14.385Z,4.97
2023-02-11T19:07:41.024Z,4.90
2023-02-11T19:10:08.207Z,5.18
2023-02-11T19:12:34.852Z,6.40
2023-02-11T19:15:01.351Z,7.05
2023-02-11T19:17:27.872Z,5.90
2023-02-11T19:19:54.377Z,5.20
2023-02-11T19:22:20.973Z,5.25
2023-02-11T19:24:47.573Z,4.70
2023-02-11T19:27:14.085Z,5.28
2023-02-11T19:29:40.764Z,5.00
2023-02-11T19:32:07.352Z,4.47
2023-02-11T19:34:41.013Z,5.45
2023-02-11T19:37:12.960Z,4.57
2023-02-11T19:39:40.850Z,4.93
2023-02-11T19:42:07.444Z,4.77
2023-02-11T19:44:34.003Z,5.22
2023-02-11T19:47:01.136Z,5.07
2023-02-11T19:49:28.102Z,5.28
2023-02-11T19:51:57.387Z,6.85
2023-02-11T19:54:26.498Z,5.43
2023-02-11T19:56:53.724Z,5.22
2023-02-11T19:59:20.257Z,5.57
2023-02-11T20:01:49.007Z,5.20
2023-02-11T20:04:17.057Z,5.05
2023-02-11T20:06:44.521Z,5.20
2023-02-11T20:09:14.635Z,4.20
2023-02-11T20:11:41.315Z,5.63
2023-02-11T20:14:08.388Z,4.80
2023-02-11T20:16:47.454Z,5.10
2023-02-11T20:19:17.941Z,4.60
2023-02-11T20:21:47.059Z,4.97
2023-02-11T20:24:14.593Z,5.15
2023-02-11T20:26:42.407Z,5.15
2023-02-11T20:29:09.355Z,5.10
2023-02-11T20:31:36.080Z,5.27
2023-02-11T20:34:02.945Z,5.32
2023-02-11T20:36:32.686Z,4.80
2023-02-11T20:39:00.324Z,4.93
2023-02-11T20:41:30.932Z,5.55
2023-02-11T20:43:59.676Z,5.30
2023-02-11T20:46:28.768Z,4.78
2023-02-11T20:48:56.486Z,5.55
2023-02-11T20:51:27.173Z,5.72
2023-02-11T20:53:54.506Z,5.68
2023-02-11T20:56:23.262Z,5.53
2023-02-11T20:58:50.551Z,4.88
2023-02-11T21:01:20.000Z,5.40
2023-02-11T21:03:59.904Z,5.55
2023-02-11T21:06:30.718Z,6.05
2023-02-11T21:08:57.522Z,5.40
2023-02-11T21:11:24.115Z,5.40
2023-02-11T21:13:51.116Z,5.50
2023-02-11T21:16:22.919Z,5.90
2023-02-11T21:18:50.562Z,5.88
2023-02-11T21:21:17.732Z,5.47
2023-02-11T21:23:44.828Z,5.15
2023-02-11T21:26:11.410Z,5.07
2023-02-11T21:28:40.886Z,5.13
2023-02-11T21:31:08.294Z,5.93
2023-02-11T21:33:35.012Z,5.60
2023-02-11T21:36:03.519Z,5.00
2023-02-11T21:38:30.572Z,4.97
2023-02-11T21:41:04.082Z,5.15
2023-02-11T21:43:30.717Z,5.68
2023-02-11T21:45:57.488Z,5.47
2023-02-11T21:48:25.705Z,5.10
2023-02-11T21:50:54.815Z,5.25
2023-02-11T21:53:21.274Z,5.82
2023-02-11T21:55:47.864Z,5.20
2023-02-11T21:58:14.607Z,5.97
2023-02-11T22:00:41.159Z,5.35
2023-02-11T22:03:08.036Z,5.45
2023-02-11T22:05:34.552Z,5.97
2023-02-11T22:08:01.022Z,5.45
2023-02-11T22:10:27.466Z,5.00
2023-02-11T22:12:53.950Z,5.90
2023-02-11T22:15:20.378Z,5.25
2023-02-11T22:17:46.831Z,5.10
2023-02-11T22:20:13.278Z,4.90
2023-02-11T22:22:39.715Z,5.43
2023-02-11T22:25:06.709Z,5.88
2023-02-11T22:27:33.199Z,5.57
2023-02-11T22:29:59.618Z,5.93
2023-02-11T22:32:26.327Z,5.50
2023-02-11T22:34:53.502Z,5.03
2023-02-11T22:37:20.484Z,5.38
2023-02-11T22:39:47.032Z,5.88
2023-02-11T22:42:13.532Z,5.95
2023-02-11T22:44:40.102Z,5.45
2023-02-11T22:47:07.170Z,6.03
2023-02-11T22:49:33.746Z,6.60
2023-02-11T22:52:00.428Z,6.32
2023-02-11T22:54:27.298Z,7.30
2023-02-11T22:56:53.764Z,6.88
2023-02-11T22:59:21.204Z,6.30
2023-02-11T23:01:48.105Z,7.07
2023-02-11T23:04:17.064Z,7.10
2023-02-11T23:06:43.980Z,6.57
2023-02-11T23:09:12.473Z,6.80
2023-02-11T23:11:39.595Z,6.20
2023-02-11T23:14:08.535Z,6.50
2023-02-11T23:16:35.163Z,6.63
2023-02-11T23:19:04.576Z,6.63
2023-02-11T23:21:33.182Z,6.82
2023-02-11T23:24:02.435Z,7.03
2023-02-11T23:26:29.307Z,6.45
2023-02-11T23:28:57.337Z,6.70
2023-02-11T23:31:37.633Z,6.57
2023-02-11T23:34:04.245Z,6.40
2023-02-11T23:36:34.168Z,6.13
2023-02-11T23:39:01.294Z,6.78
2023-02-11T23:41:27.952Z,6.68
2023-02-11T23:43:57.362Z,6.80
2023-02-11T23:46:26.124Z,7.10
2023-02-11T23:48:53.313Z,6.20
2023-02-11T23:51:20.268Z,6.97
2023-02-11T23:53:49.191Z,7.32
2023-02-11T23:56:19.426Z,6.93
2023-02-11T23:58:50.087Z,6.60
